createdAt,value
2018-02-25T00:00:41.836Z,-2.07
2018-02-25T00:03:07.808Z,-2.08
2018-02-25T00:05:33.745Z,-2.29
2018-02-25T00:07:59.727Z,-2.17
2018-02-25T00:10:25.674Z,-2.37
2018-02-25T00:12:51.627Z,-2.11
2018-02-25T00:15:17.601Z,-2.33
2018-02-25T00:17:43.548Z,-2.34
2018-02-25T00:20:09.513Z,-2.22
2018-02-25T00:22:35.462Z,-2.22
2018-02-25T00:25:01.417Z,-2.43
2018-02-25T00:27:27.384Z,-1.79
2018-02-25T00:29:53.332Z,-2.38
2018-02-25T00:32:19.315Z,-1.87
2018-02-25T00:34:45.267Z,-2.23
2018-02-25T00:37:11.215Z,-2.28
2018-02-25T00:39:37.158Z,-2.94
2018-02-25T00:42:03.089Z,-2.72
2018-02-25T00:44:29.039Z,-2.67
2018-02-25T00:46:55.000Z,-2.69
2018-02-25T00:49:20.940Z,-2.86
2018-02-25T00:51:46.895Z,-2.42
2018-02-25T00:54:12.847Z,-2.45
2018-02-25T00:56:38.824Z,-2.37
2018-02-25T00:59:04.797Z,-2.84
2018-02-25T01:01:30.773Z,-2.41
2018-02-25T01:03:56.719Z,-2.30
2018-02-25T01:06:22.675Z,-2.46
2018-02-25T01:08:48.683Z,-2.95
2018-02-25T01:11:14.670Z,-2.89
2018-02-25T01:13:40.643Z,-2.84
2018-02-25T01:16:06.615Z,-2.86
2018-02-25T01:18:32.565Z,-3.09
2018-02-25T01:20:58.523Z,-3.07
2018-02-25T01:23:24.474Z,-2.99
2018-02-25T01:25:50.401Z,-3.05
2018-02-25T01:28:16.337Z,-2.94
2018-02-25T01:30:42.275Z,-2.72
2018-02-25T01:33:08.229Z,-3.18
2018-02-25T01:35:34.161Z,-2.94
2018-02-25T01:38:00.110Z,-2.98
2018-02-25T01:40:26.044Z,-3.09
2018-02-25T01:42:51.986Z,-3.22
2018-02-25T01:45:17.928Z,-3.17
2018-02-25T01:47:43.887Z,-3.41
2018-02-25T01:50:09.832Z,-3.25
2018-02-25T01:52:35.797Z,-3.52
2018-02-25T01:55:01.779Z,-3.28
2018-02-25T01:57:27.727Z,-3.35
2018-02-25T01:59:53.675Z,-3.31
2018-02-25T02:02:19.621Z,-3.31
2018-02-25T02:04:45.563Z,-3.53
2018-02-25T02:07:11.514Z,-3.52
2018-02-25T02:09:37.455Z,-3.41
2018-02-25T02:12:03.406Z,-3.72
2018-02-25T02:14:29.360Z,-3.59
2018-02-25T02:16:55.353Z,-3.17
2018-02-25T02:19:21.303Z,-3.10
2018-02-25T02:21:47.272Z,-3.27
2018-02-25T02:24:13.219Z,-3.57
2018-02-25T02:26:39.167Z,-3.79
2018-02-25T02:29:05.098Z,-3.70
2018-02-25T02:31:31.061Z,-3.84
2018-02-25T02:33:57.019Z,-4.04
2018-02-25T02:36:22.982Z,-3.87
2018-02-25T02:38:48.924Z,-3.61
2018-02-25T02:41:14.884Z,-3.38
2018-02-25T02:43:40.834Z,-3.51
2018-02-25T02:46:06.766Z,-3.09
2018-02-25T02:48:32.709Z,-3.26
2018-02-25T02:50:58.696Z,-3.64
2018-02-25T02:53:24.682Z,-3.80
2018-02-25T02:55:50.638Z,-3.65
2018-02-25T02:58:16.604Z,-3.33
2018-02-25T03:00:42.558Z,-3.36
2018-02-25T03:03:08.493Z,-3.48
2018-02-25T03:05:34.468Z,-2.81
2018-02-25T03:08:00.411Z,-3.08
2018-02-25T03:10:26.348Z,-3.46
2018-02-25T03:12:52.302Z,-3.27
2018-02-25T03:15:18.260Z,-2.92
2018-02-25T03:17:44.198Z,-3.24
2018-02-25T03:20:10.133Z,-3.92
2018-02-25T03:22:36.084Z,-3.24
2018-02-25T03:25:02.041Z,-3.75
2018-02-25T03:27:28.002Z,-3.70
2018-02-25T03:29:53.933Z,-4.34
2018-02-25T03:32:19.862Z,-4.37
2018-02-25T03:34:45.786Z,-3.93
2018-02-25T03:37:11.775Z,-3.89
2018-02-25T03:39:37.706Z,-4.15
2018-02-25T03:42:03.688Z,-4.27
2018-02-25T03:44:29.630Z,-4.25
2018-02-25T03:46:55.582Z,-4.35
2018-02-25T03:49:21.520Z,-3.94
2018-02-25T03:51:47.501Z,-4.20
2018-02-25T03:54:13.437Z,-4.14
2018-02-25T03:56:39.403Z,-4.43
2018-02-25T03:59:05.346Z,-4.49
2018-02-25T04:01:31.284Z,-4.22
2018-02-25T04:03:57.220Z,-4.04
2018-02-25T04:06:23.178Z,-4.24
2018-02-25T04:08:49.138Z,-4.23
2018-02-25T04:11:15.074Z,-4.08
2018-02-25T04:13:41.024Z,-4.22
2018-02-25T04:16:06.962Z,-4.35
2018-02-25T04:18:32.906Z,-4.03
2018-02-25T04:20:58.826Z,-3.72
2018-02-25T04:23:24.762Z,-4.01
2018-02-25T04:25:50.694Z,-4.48
2018-02-25T04:28:16.636Z,-4.76
2018-02-25T04:30:42.592Z,-4.35
2018-02-25T04:33:08.540Z,-4.25
2018-02-25T04:35:34.472Z,-4.12
2018-02-25T04:38:00.410Z,-4.18
2018-02-25T04:40:26.394Z,-4.15
2018-02-25T04:42:52.334Z,-4.27
2018-02-25T04:45:18.272Z,-3.71
2018-02-25T04:47:44.202Z,-4.24
2018-02-25T04:50:10.148Z,-4.38
2018-02-25T04:52:36.094Z,-4.44
2018-02-25T04:55:02.019Z,-4.51
2018-02-25T04:57:27.962Z,-4.46
2018-02-25T04:59:53.906Z,-4.29
2018-02-25T05:02:19.860Z,-4.16
2018-02-25T05:04:45.786Z,-4.61
2018-02-25T05:07:11.731Z,-4.27
2018-02-25T05:09:37.671Z,-4.43
2018-02-25T05:12:03.642Z,-4.21
2018-02-25T05:14:29.583Z,-4.21
2018-02-25T05:16:55.525Z,-4.35
2018-02-25T05:19:21.478Z,-4.39
2018-02-25T05:21:47.431Z,-4.37
2018-02-25T05:24:13.392Z,-3.78
2018-02-25T05:26:39.363Z,-3.99
2018-02-25T05:29:05.310Z,-3.91
2018-02-25T05:31:31.274Z,-4.06
2018-02-25T05:33:57.210Z,-4.29
2018-02-25T05:36:23.193Z,-4.73
2018-02-25T05:38:49.139Z,-5.15
2018-02-25T05:41:15.081Z,-4.74
2018-02-25T05:43:41.008Z,-4.96
2018-02-25T05:46:06.944Z,-4.85
2018-02-25T05:48:32.880Z,-4.76
2018-02-25T05:50:58.818Z,-4.83
2018-02-25T05:53:24.829Z,-4.75
2018-02-25T05:55:50.774Z,-4.92
2018-02-25T05:58:16.704Z,-4.71
2018-02-25T06:00:42.668Z,-4.10
2018-02-25T06:03:08.587Z,-4.47
2018-02-25T06:05:34.530Z,-4.36
2018-02-25T06:08:00.508Z,-4.05
2018-02-25T06:10:26.434Z,-4.04
2018-02-25T06:12:52.377Z,-3.82
2018-02-25T06:15:18.318Z,-3.98
2018-02-25T06:17:44.273Z,-4.34
2018-02-25T06:20:10.209Z,-4.35
2018-02-25T06:22:36.228Z,-4.13
2018-02-25T06:25:02.166Z,-4.27
2018-02-25T06:27:28.140Z,-3.79
2018-02-25T06:29:54.112Z,-3.67
2018-02-25T06:32:20.035Z,-3.71
2018-02-25T06:34:46.078Z,-3.86
2018-02-25T06:37:12.022Z,-3.90
2018-02-25T06:39:37.970Z,-4.00
2018-02-25T06:42:03.908Z,-3.79
2018-02-25T06:44:29.859Z,-3.57
2018-02-25T06:46:55.803Z,-3.60
2018-02-25T06:49:21.740Z,-3.43
2018-02-25T06:51:47.669Z,-3.38
2018-02-25T06:54:13.613Z,-3.58
2018-02-25T06:56:39.569Z,-3.43
2018-02-25T06:59:05.529Z,-2.86
2018-02-25T07:01:31.455Z,-2.79
2018-02-25T07:03:57.391Z,-2.48
2018-02-25T07:06:23.332Z,-2.64
2018-02-25T07:08:49.273Z,-2.64
2018-02-25T07:11:15.274Z,-2.72
2018-02-25T07:13:41.237Z,-2.71
2018-02-25T07:16:07.189Z,-2.57
2018-02-25T07:18:33.131Z,-2.26
2018-02-25T07:20:59.087Z,-2.16
2018-02-25T07:23:25.077Z,-2.16
2018-02-25T07:25:51.007Z,-1.66
2018-02-25T07:28:16.934Z,-1.87
2018-02-25T07:30:42.875Z,-1.69
2018-02-25T07:33:08.847Z,-1.43
2018-02-25T07:35:34.779Z,-1.48
2018-02-25T07:38:00.720Z,-1.56
2018-02-25T07:40:26.657Z,-1.26
2018-02-25T07:42:52.667Z,-1.64
2018-02-25T07:45:18.610Z,-1.71
2018-02-25T07:47:44.557Z,-1.53
2018-02-25T07:50:10.497Z,-1.01
2018-02-25T07:52:36.449Z,-1.02
2018-02-25T07:55:02.401Z,-0.96
2018-02-25T07:57:28.388Z,-0.34
2018-02-25T07:59:54.338Z,-0.67
2018-02-25T08:02:20.267Z,-0.82
2018-02-25T08:04:46.226Z,-1.44
2018-02-25T08:07:12.167Z,-0.82
2018-02-25T08:09:38.089Z,-0.91
2018-02-25T08:12:04.047Z,-1.00
2018-02-25T08:14:29.999Z,-1.31
2018-02-25T08:16:55.953Z,-1.21
2018-02-25T08:19:21.907Z,-0.98
2018-02-25T08:21:47.881Z,-0.50
2018-02-25T08:24:13.833Z,-1.18
2018-02-25T08:26:39.789Z,-0.80
2018-02-25T08:29:05.742Z,-0.54
2018-02-25T08:31:31.711Z,-0.23
2018-02-25T08:33:57.665Z,-0.86
2018-02-25T08:36:23.602Z,-1.45
2018-02-25T08:38:49.547Z,-0.78
2018-02-25T08:41:15.488Z,-0.47
2018-02-25T08:43:41.526Z,-0.67
2018-02-25T08:46:07.463Z,-0.43
2018-02-25T08:48:33.412Z,-0.11
2018-02-25T08:50:59.371Z,-0.25
2018-02-25T08:53:25.315Z,-0.24
2018-02-25T08:55:51.245Z,-1.05
2018-02-25T08:58:17.199Z,-0.83
2018-02-25T09:00:43.178Z,-0.73
2018-02-25T09:03:09.119Z,0.28
2018-02-25T09:05:35.123Z,0.68
2018-02-25T09:08:01.072Z,-0.01
2018-02-25T09:10:27.060Z,-0.11
2018-02-25T09:12:53.007Z,-0.55
2018-02-25T09:15:18.952Z,0.08
2018-02-25T09:17:44.886Z,0.52
2018-02-25T09:20:10.825Z,1.23
2018-02-25T09:22:36.771Z,-0.02
2018-02-25T09:25:02.716Z,-0.68
2018-02-25T09:27:28.667Z,-0.27
2018-02-25T09:29:54.606Z,-0.42
2018-02-25T09:32:21.800Z,-0.36
2018-02-25T09:34:47.721Z,-0.10
2018-02-25T09:37:13.667Z,-0.36
2018-02-25T09:39:39.678Z,-0.02
2018-02-25T09:42:05.652Z,0.29
2018-02-25T09:44:31.609Z,0.13
2018-02-25T09:46:57.575Z,-0.82
2018-02-25T09:49:23.540Z,-1.52
2018-02-25T09:51:49.516Z,-0.97
2018-02-25T09:54:15.466Z,-1.87
2018-02-25T09:56:41.407Z,-1.31
2018-02-25T09:59:07.375Z,-1.03
2018-02-25T10:01:33.361Z,-1.36
2018-02-25T10:03:59.317Z,-1.48
2018-02-25T10:06:25.271Z,-1.19
2018-02-25T10:08:51.243Z,-1.11
2018-02-25T10:11:17.193Z,-1.12
2018-02-25T10:13:43.146Z,-0.80
2018-02-25T10:16:09.141Z,-1.20
2018-02-25T10:18:35.079Z,-0.47
2018-02-25T10:21:01.041Z,-0.81
2018-02-25T10:23:27.006Z,-0.59
2018-02-25T10:25:52.968Z,-1.23
2018-02-25T10:28:18.969Z,-1.28
2018-02-25T10:30:44.919Z,-0.58
2018-02-25T10:33:10.855Z,-1.22
2018-02-25T10:35:36.841Z,-1.30
2018-02-25T10:38:02.784Z,-1.22
2018-02-25T10:40:28.731Z,-1.29
2018-02-25T10:42:54.671Z,-0.81
2018-02-25T10:45:20.607Z,-1.06
2018-02-25T10:47:46.570Z,-1.32
2018-02-25T10:50:12.524Z,-0.78
2018-02-25T10:52:38.447Z,-1.57
2018-02-25T10:55:04.402Z,-1.16
2018-02-25T10:57:30.358Z,-1.10
2018-02-25T10:59:56.290Z,-0.85
2018-02-25T11:02:22.243Z,-1.09
2018-02-25T11:04:48.183Z,-1.49
2018-02-25T11:07:14.134Z,-1.48
2018-02-25T11:09:40.109Z,-2.07
2018-02-25T11:12:06.079Z,-2.03
2018-02-25T11:14:32.121Z,-1.80
2018-02-25T11:16:58.141Z,-1.78
2018-02-25T11:19:24.108Z,-1.93
2018-02-25T11:21:50.056Z,-1.97
2018-02-25T11:24:16.016Z,-1.45
2018-02-25T11:26:41.968Z,-1.55
2018-02-25T11:29:07.934Z,-1.57
2018-02-25T11:31:33.970Z,-1.33
2018-02-25T11:33:59.864Z,-1.36
2018-02-25T11:36:25.802Z,-1.55
2018-02-25T11:38:51.784Z,-1.71
2018-02-25T11:41:17.700Z,-1.95
2018-02-25T11:43:43.638Z,-1.71
2018-02-25T11:46:09.601Z,-2.59
2018-02-25T11:48:35.684Z,-1.58
2018-02-25T11:51:01.632Z,-1.65
2018-02-25T11:53:27.585Z,-1.99
2018-02-25T11:55:53.524Z,-1.86
2018-02-25T11:58:19.467Z,-1.52
2018-02-25T12:00:45.407Z,-1.48
2018-02-25T12:03:11.360Z,-1.30
2018-02-25T12:05:37.317Z,-0.90
2018-02-25T12:08:03.292Z,-0.89
2018-02-25T12:10:29.266Z,-1.22
2018-02-25T12:12:55.214Z,-1.19
2018-02-25T12:15:21.180Z,-0.98
2018-02-25T12:17:47.116Z,-1.60
2018-02-25T12:20:13.092Z,-1.19
2018-02-25T12:22:39.042Z,-1.81
2018-02-25T12:25:05.012Z,-1.41
2018-02-25T12:27:30.945Z,-1.50
2018-02-25T12:29:56.900Z,-1.29
2018-02-25T12:32:22.850Z,-1.17
2018-02-25T12:34:48.794Z,-1.06
2018-02-25T12:37:14.734Z,-0.86
2018-02-25T12:39:40.810Z,-0.56
2018-02-25T12:42:06.765Z,-1.04
2018-02-25T12:44:32.795Z,-0.83
2018-02-25T12:46:58.807Z,-1.06
2018-02-25T12:49:24.774Z,-1.19
2018-02-25T12:51:50.782Z,-1.14
2018-02-25T12:54:16.928Z,-1.59
2018-02-25T12:56:42.880Z,-2.03
2018-02-25T12:59:08.837Z,-1.88
2018-02-25T13:01:34.815Z,-1.52
2018-02-25T13:04:00.774Z,-1.02
2018-02-25T13:06:26.732Z,-1.33
2018-02-25T13:08:52.692Z,-0.90
2018-02-25T13:11:18.668Z,-0.88
2018-02-25T13:13:44.616Z,-0.94
2018-02-25T13:16:10.649Z,-1.31
2018-02-25T13:18:36.635Z,-0.88
2018-02-25T13:21:02.595Z,-0.61
2018-02-25T13:23:30.603Z,-0.45
2018-02-25T13:25:56.553Z,-0.84
2018-02-25T13:28:22.517Z,-0.45
2018-02-25T13:30:48.467Z,-0.54
2018-02-25T13:33:14.421Z,-0.51
2018-02-25T13:35:40.388Z,-0.66
2018-02-25T13:38:06.367Z,-0.28
2018-02-25T13:40:32.319Z,-0.33
2018-02-25T13:42:58.263Z,-0.48
2018-02-25T13:45:24.223Z,-0.57
2018-02-25T13:47:50.191Z,-0.59
2018-02-25T13:50:16.245Z,-0.65
2018-02-25T13:52:42.189Z,-0.51
2018-02-25T13:55:08.148Z,-0.68
2018-02-25T13:57:34.116Z,-0.55
2018-02-25T14:00:00.159Z,-0.21
2018-02-25T14:02:26.111Z,-0.07
2018-02-25T14:04:52.065Z,-0.37
2018-02-25T14:07:18.017Z,-0.59
2018-02-25T14:09:43.961Z,-0.49
2018-02-25T14:12:09.900Z,-0.51
2018-02-25T14:14:35.909Z,-0.52
2018-02-25T14:17:01.865Z,-0.67
2018-02-25T14:19:27.807Z,-0.33
2018-02-25T14:21:53.783Z,-0.35
2018-02-25T14:24:19.721Z,-0.65
2018-02-25T14:26:45.673Z,-0.46
2018-02-25T14:29:11.649Z,-0.52
2018-02-25T14:31:37.616Z,-0.55
2018-02-25T14:34:03.691Z,-0.46
2018-02-25T14:36:29.686Z,-0.35
2018-02-25T14:38:55.637Z,-0.49
2018-02-25T14:41:21.579Z,-0.55
2018-02-25T14:43:47.555Z,-0.48
2018-02-25T14:46:13.490Z,-0.41
2018-02-25T14:48:39.737Z,-0.30
2018-02-25T14:51:05.672Z,-0.31
2018-02-25T14:53:31.674Z,-0.67
2018-02-25T14:56:00.882Z,-0.50
2018-02-25T14:58:26.840Z,-0.44
2018-02-25T15:00:52.792Z,-0.47
2018-02-25T15:03:18.736Z,-0.58
2018-02-25T15:05:44.728Z,-0.53
2018-02-25T15:08:10.696Z,-0.44
2018-02-25T15:10:36.659Z,-0.25
2018-02-25T15:13:02.606Z,-0.29
2018-02-25T15:15:28.552Z,-0.66
2018-02-25T15:17:54.554Z,-0.69
2018-02-25T15:20:20.510Z,-0.56
2018-02-25T15:22:46.492Z,-0.58
2018-02-25T15:25:12.444Z,-0.43
2018-02-25T15:27:38.437Z,-0.52
2018-02-25T15:30:04.381Z,-0.46
2018-02-25T15:32:30.337Z,-0.52
2018-02-25T15:34:56.287Z,-0.61
2018-02-25T15:37:22.236Z,-0.46
2018-02-25T15:39:48.182Z,-0.67
2018-02-25T15:42:14.192Z,-0.47
2018-02-25T15:44:40.216Z,-0.55
2018-02-25T15:47:06.167Z,-0.40
2018-02-25T15:49:32.175Z,-0.51
2018-02-25T15:51:58.175Z,-0.55
2018-02-25T15:54:24.124Z,-0.51
2018-02-25T15:56:50.062Z,-0.52
2018-02-25T15:59:16.042Z,-0.52
2018-02-25T16:01:41.991Z,-0.55
2018-02-25T16:04:07.968Z,-0.41
2018-02-25T16:06:34.004Z,-0.62
2018-02-25T16:08:59.937Z,-0.59
2018-02-25T16:11:25.921Z,-0.20
2018-02-25T16:13:51.834Z,-0.40
2018-02-25T16:16:17.782Z,-0.47
2018-02-25T16:18:43.721Z,-0.49
2018-02-25T16:21:09.652Z,-0.71
2018-02-25T16:23:35.588Z,-0.62
2018-02-25T16:26:01.550Z,-0.78
2018-02-25T16:28:27.503Z,-0.72
2018-02-25T16:30:53.468Z,-0.84
2018-02-25T16:33:19.394Z,-0.70
2018-02-25T16:35:45.330Z,-0.85
2018-02-25T16:38:11.279Z,-0.88
2018-02-25T16:40:37.326Z,-0.74
2018-02-25T16:43:03.284Z,-0.92
2018-02-25T16:45:29.216Z,-0.75
2018-02-25T16:47:55.160Z,-0.86
2018-02-25T16:50:21.111Z,-1.15
2018-02-25T16:52:47.051Z,-0.95
2018-02-25T16:55:13.058Z,-0.90
2018-02-25T16:57:39.006Z,-0.92
2018-02-25T17:00:04.959Z,-0.81
2018-02-25T17:02:30.933Z,-1.05
2018-02-25T17:04:56.880Z,-0.97
2018-02-25T17:07:22.869Z,-0.83
2018-02-25T17:09:48.826Z,-1.06
2018-02-25T17:12:14.767Z,-0.85
2018-02-25T17:14:40.716Z,-0.87
2018-02-25T17:17:06.689Z,-0.87
2018-02-25T17:19:32.714Z,-0.91
2018-02-25T17:21:58.676Z,-1.12
2018-02-25T17:24:24.615Z,-1.13
2018-02-25T17:26:50.571Z,-1.05
2018-02-25T17:29:16.501Z,-0.96
2018-02-25T17:31:42.469Z,-0.92
2018-02-25T17:34:08.423Z,-0.80
2018-02-25T17:36:34.458Z,-0.80
2018-02-25T17:39:00.496Z,-0.71
2018-02-25T17:41:26.486Z,-0.58
2018-02-25T17:43:52.439Z,-0.67
2018-02-25T17:46:18.433Z,-0.80
2018-02-25T17:48:44.372Z,-0.95
2018-02-25T17:51:10.472Z,-0.90
2018-02-25T17:53:36.430Z,-0.88
2018-02-25T17:56:02.394Z,-0.80
2018-02-25T17:58:28.336Z,-0.81
2018-02-25T18:00:54.317Z,-0.85
2018-02-25T18:03:20.256Z,-1.10
2018-02-25T18:05:46.209Z,-0.99
2018-02-25T18:08:12.245Z,-0.86
2018-02-25T18:10:38.333Z,-0.89
2018-02-25T18:13:04.250Z,-0.75
2018-02-25T18:15:30.187Z,-0.79
2018-02-25T18:17:56.123Z,-0.80
2018-02-25T18:20:22.165Z,-0.89
2018-02-25T18:22:48.057Z,-0.93
2018-02-25T18:25:14.028Z,-0.81
2018-02-25T18:27:39.981Z,-0.87
2018-02-25T18:30:05.927Z,-0.81
2018-02-25T18:32:31.857Z,-1.17
2018-02-25T18:34:57.797Z,-1.00
2018-02-25T18:37:23.728Z,-1.12
2018-02-25T18:39:49.683Z,-0.94
2018-02-25T18:42:15.621Z,-0.94
2018-02-25T18:44:41.576Z,-1.05
2018-02-25T18:47:07.545Z,-1.00
2018-02-25T18:49:33.516Z,-0.89
2018-02-25T18:51:59.467Z,-0.92
2018-02-25T18:54:25.442Z,-0.92
2018-02-25T18:56:51.388Z,-1.05
2018-02-25T18:59:17.345Z,-0.96
2018-02-25T19:01:43.284Z,-0.90
2018-02-25T19:04:09.235Z,-1.19
2018-02-25T19:06:35.234Z,-0.94
2018-02-25T19:09:01.168Z,-0.92
2018-02-25T19:11:27.127Z,-0.94
2018-02-25T19:13:53.068Z,-1.07
2018-02-25T19:16:19.005Z,-0.92
2018-02-25T19:18:44.975Z,-0.83
2018-02-25T19:21:10.924Z,-0.88
2018-02-25T19:23:36.880Z,-1.07
2018-02-25T19:26:02.850Z,-0.96
2018-02-25T19:28:28.810Z,-0.99
2018-02-25T19:31:00.792Z,-0.98
2018-02-25T19:33:26.727Z,-1.32
2018-02-25T19:35:52.677Z,-1.33
2018-02-25T19:38:18.657Z,-0.87
2018-02-25T19:40:44.665Z,-1.13
2018-02-25T19:43:10.606Z,-1.04
2018-02-25T19:45:36.565Z,-1.07
2018-02-25T19:48:02.507Z,-1.04
2018-02-25T19:50:28.459Z,-1.15
2018-02-25T19:52:54.405Z,-1.11
2018-02-25T19:55:20.355Z,-0.93
2018-02-25T19:57:46.397Z,-1.39
2018-02-25T20:00:12.343Z,-1.08
2018-02-25T20:02:38.304Z,-1.52
2018-02-25T20:05:04.255Z,-1.62
2018-02-25T20:07:30.264Z,-1.05
2018-02-25T20:09:56.170Z,-1.42
2018-02-25T20:12:22.127Z,-1.54
2018-02-25T20:14:48.070Z,-1.66
2018-02-25T20:17:14.037Z,-1.31
2018-02-25T20:19:40.013Z,-1.30
2018-02-25T20:22:05.981Z,-1.62
2018-02-25T20:24:31.953Z,-1.60
2018-02-25T20:26:57.934Z,-1.18
2018-02-25T20:29:23.895Z,-1.68
2018-02-25T20:31:49.847Z,-1.95
2018-02-25T20:34:15.899Z,-1.74
2018-02-25T20:36:41.859Z,-2.03
2018-02-25T20:39:07.807Z,-2.03
2018-02-25T20:41:33.797Z,-1.62
2018-02-25T20:43:59.749Z,-1.77
2018-02-25T20:46:25.741Z,-1.70
2018-02-25T20:48:51.693Z,-2.14
2018-02-25T20:51:17.631Z,-2.29
2018-02-25T20:53:43.589Z,-2.23
2018-02-25T20:56:10.087Z,-1.84
2018-02-25T20:58:36.029Z,-1.97
2018-02-25T21:01:02.023Z,-1.83
2018-02-25T21:03:27.967Z,-1.91
2018-02-25T21:05:53.923Z,-1.87
2018-02-25T21:08:19.886Z,-1.94
2018-02-25T21:10:45.844Z,-2.08
2018-02-25T21:13:11.783Z,-2.12
2018-02-25T21:15:37.742Z,-2.20
2018-02-25T21:18:03.676Z,-2.21
2018-02-25T21:20:31.727Z,-1.88
2018-02-25T21:22:57.770Z,-1.88
2018-02-25T21:25:23.760Z,-1.91
2018-02-25T21:27:49.725Z,-2.01
2018-02-25T21:30:15.717Z,-1.96
2018-02-25T21:32:41.763Z,-2.04
2018-02-25T21:35:07.733Z,-1.95
2018-02-25T21:37:33.663Z,-2.11
2018-02-25T21:39:59.626Z,-2.11
2018-02-25T21:42:25.576Z,-2.10
2018-02-25T21:44:51.519Z,-2.24
2018-02-25T21:47:17.459Z,-2.34
2018-02-25T21:49:43.482Z,-2.42
2018-02-25T21:52:09.463Z,-2.32
2018-02-25T21:54:35.426Z,-2.40
2018-02-25T21:57:01.376Z,-2.39
2018-02-25T21:59:27.316Z,-2.38
2018-02-25T22:01:53.256Z,-2.53
2018-02-25T22:04:19.202Z,-2.74
2018-02-25T22:06:45.162Z,-2.96
2018-02-25T22:09:11.110Z,-2.92
2018-02-25T22:11:37.055Z,-3.03
2018-02-25T22:14:03.004Z,-3.11
2018-02-25T22:16:28.949Z,-2.86
2018-02-25T22:18:54.899Z,-2.86
2018-02-25T22:21:20.856Z,-2.72
2018-02-25T22:23:46.850Z,-2.58
2018-02-25T22:26:12.760Z,-2.63
2018-02-25T22:28:38.700Z,-2.97
2018-02-25T22:31:04.660Z,-2.98
2018-02-25T22:33:30.595Z,-2.92
2018-02-25T22:35:56.522Z,-2.88
2018-02-25T22:38:22.462Z,-2.92
2018-02-25T22:40:48.429Z,-2.83
2018-02-25T22:43:14.354Z,-3.02
2018-02-25T22:45:40.339Z,-3.02
2018-02-25T22:48:06.287Z,-2.95
2018-02-25T22:50:32.226Z,-3.05
2018-02-25T22:52:58.159Z,-3.00
2018-02-25T22:55:24.098Z,-2.47
2018-02-25T22:57:50.103Z,-2.66
2018-02-25T23:00:16.042Z,-3.15
2018-02-25T23:02:41.988Z,-3.42
2018-02-25T23:05:07.956Z,-3.48
2018-02-25T23:07:33.898Z,-2.65
2018-02-25T23:09:59.840Z,-2.85
2018-02-25T23:12:25.790Z,-3.27
2018-02-25T23:14:51.740Z,-3.24
2018-02-25T23:17:17.682Z,-3.08
2018-02-25T23:19:43.622Z,-3.11
2018-02-25T23:22:09.552Z,-3.07
2018-02-25T23:24:35.506Z,-3.34
2018-02-25T23:27:01.440Z,-3.31
2018-02-25T23:29:27.372Z,-3.35
2018-02-25T23:31:53.320Z,-3.14
2018-02-25T23:34:19.250Z,-3.28
2018-02-25T23:36:45.212Z,-3.30
2018-02-25T23:39:11.184Z,-3.34
2018-02-25T23:41:37.216Z,-3.21
2018-02-25T23:44:03.152Z,-2.95
2018-02-25T23:46:29.098Z,-3.26
2018-02-25T23:48:55.052Z,-3.28
2018-02-25T23:51:21.014Z,-3.78
2018-02-25T23:53:46.946Z,-3.50
2018-02-25T23:56:12.910Z,-3.60
2018-02-25T23:58:38.851Z,-3.58
